Time;durP1;ratioP1;P1;durP2;ratioP2;P2;SDS_P1;SDS_P2;PMS_P1;PMS_P2;Temp;Humidity;BMP_temperature;BMP_pressure;BME280_temperature;BME280_humidity;BME280_pressure;Samples;Min_cycle;Max_cycle;Signal;HPM_P1;HPM_P2
2022/09/04 00:01:34;;;;;;;;;15.80;15.20;;;;;21.90;52.98;100690.78;5059986;28;45370;-50
2022/09/04 00:04:15;;;;;;;;;14.20;13.60;;;;;22.07;53.23;100720.25;5044059;28;46205;-50
2022/09/04 00:07:01;;;;;;;;;13.40;12.00;;;;;22.02;53.03;100723.09;5077386;28;45777;-50
2022/09/04 00:09:39;;;;;;;;;15.40;14.40;;;;;21.96;52.94;100710.28;5077497;28;45157;-51
2022/09/04 00:12:07;;;;;;;;;15.40;14.40;;;;;21.98;52.99;100719.22;5060377;28;45414;-54
2022/09/04 00:14:53;;;;;;;;;12.60;12.60;;;;;21.77;53.27;100697.00;5077596;28;46912;-51
2022/09/04 00:17:41;;;;;;;;;14.20;11.80;;;;;21.76;53.28;100689.72;5043517;28;45377;-52
2022/09/04 00:20:11;;;;;;;;;13.60;12.80;;;;;21.69;53.28;100694.78;5031449;28;45349;-54
2022/09/04 00:22:51;;;;;;;;;18.00;15.00;;;;;21.84;53.75;100733.84;5076757;28;45409;-51
2022/09/04 00:25:41;;;;;;;;;12.40;12.40;;;;;21.82;53.67;100738.03;5086716;27;45943;-52
2022/09/04 00:28:34;;;;;;;;;12.40;12.20;;;;;21.83;53.73;100737.75;5079592;27;45486;-55
2022/09/04 00:31:15;;;;;;;;;13.60;13.20;;;;;21.73;53.95;100738.66;5098113;27;45304;-52
2022/09/04 00:33:52;;;;;;;;;14.20;14.20;;;;;21.54;53.95;100710.50;5098678;27;45375;-53
2022/09/04 00:36:18;;;;;;;;;11.40;11.40;;;;;21.72;53.97;100738.94;5097944;27;45748;-55
2022/09/04 00:38:46;;;;;;;;;17.00;15.25;;;;;21.73;54.11;100741.44;5097884;27;45307;-52
2022/09/04 00:41:29;;;;;;;;;15.80;15.80;;;;;21.68;54.20;100755.41;5046371;27;45498;-55
2022/09/04 00:44:31;;;;;;;;;15.60;15.00;;;;;21.62;54.20;100739.78;5096709;27;45460;-53
2022/09/04 00:47:28;;;;;;;;;15.60;14.60;;;;;21.66;54.28;100752.03;5097844;27;46340;-51
2022/09/04 00:50:10;;;;;;;;;20.60;18.00;;;;;21.63;54.18;100749.81;5097523;27;45351;-51
2022/09/04 00:52:41;;;;;;;;;14.40;14.40;;;;;21.60;54.07;100754.03;5097724;27;45423;-50
2022/09/04 00:55:25;;;;;;;;;16.40;14.80;;;;;21.56;54.15;100763.28;5098114;27;45305;-53
2022/09/04 00:58:14;;;;;;;;;13.80;13.60;;;;;21.41;54.24;100751.06;5097838;27;45357;-50
2022/09/04 01:00:39;;;;;;;;;13.80;13.80;;;;;21.44;54.22;100753.25;5080684;27;45566;-54
2022/09/04 01:03:29;;;;;;;;;13.50;13.50;;;;;21.37;54.31;100755.53;5079593;27;45375;-52
2022/09/04 01:06:19;;;;;;;;;15.60;14.20;;;;;21.33;54.31;100763.63;5081327;27;45887;-55
2022/09/04 01:09:21;;;;;;;;;12.80;12.40;;;;;21.35;54.45;100768.94;5079119;27;46842;-53
2022/09/04 01:11:56;;;;;;;;;16.40;15.20;;;;;21.34;54.34;100778.44;5096924;27;45502;-54
2022/09/04 01:14:41;;;;;;;;;17.00;14.80;;;;;21.34;54.41;100775.66;5079429;27;45423;-51
2022/09/04 01:17:13;;;;;;;;;14.60;14.60;;;;;21.21;54.26;100757.53;5079490;27;45423;-52
2022/09/04 01:20:02;;;;;;;;;15.60;15.00;;;;;21.34;54.36;100775.66;5095914;27;46745;-51
2022/09/04 01:22:52;;;;;;;;;15.80;15.80;;;;;21.35;54.34;100771.72;5090318;27;45454;-55
2022/09/04 01:25:55;;;;;;;;;18.80;16.20;;;;;21.28;54.22;100780.38;5097249;27;45388;-53
2022/09/04 01:28:20;;;;;;;;;13.40;13.40;;;;;21.26;54.51;100791.00;5097660;27;45685;-54
2022/09/04 01:30:53;;;;;;;;;21.50;19.00;;;;;21.22;54.31;100782.38;5097327;27;45892;-52
2022/09/04 01:33:34;;;;;;;;;16.20;13.80;;;;;21.18;54.13;100781.25;5062515;27;45338;-54
2022/09/04 01:36:35;;;;;;;;;17.60;17.60;;;;;21.20;54.33;100781.81;5072902;27;45361;-55
2022/09/04 01:39:00;;;;;;;;;11.00;10.80;;;;;21.18;54.14;100780.44;5097376;27;45480;-51
2022/09/04 01:42:04;;;;;;;;;13.25;12.50;;;;;21.20;53.51;100790.19;5096971;27;46220;-54
2022/09/04 01:44:30;;;;;;;;;12.00;12.00;;;;;21.18;53.47;100802.75;5062056;27;45524;-54
2022/09/04 01:47:15;;;;;;;;;15.75;12.50;;;;;21.07;53.58;100774.88;5097050;27;45384;-50
2022/09/04 01:49:50;;;;;;;;;12.40;10.40;;;;;21.11;53.50;100780.72;5079524;27;45298;-51
2022/09/04 01:52:25;;;;;;;;;11.40;10.80;;;;;21.01;53.21;100767.63;5079010;27;46577;-51
2022/09/04 01:54:50;;;;;;;;;13.00;10.40;;;;;20.93;53.17;100765.41;5097056;27;45383;-50
2022/09/04 01:57:28;;;;;;;;;12.50;12.50;;;;;21.05;53.46;100791.06;5096799;27;45375;-51
2022/09/04 02:00:12;;;;;;;;;10.60;10.60;;;;;21.08;53.36;100800.81;5097324;27;45387;-52
2022/09/04 02:02:56;;;;;;;;;12.40;10.40;;;;;21.06;53.10;100803.03;5058037;27;46094;-51
2022/09/04 02:05:53;;;;;;;;;9.20;8.40;;;;;21.03;53.20;100806.41;5117793;27;45277;-53
2022/09/04 02:08:32;;;;;;;;;8.00;8.00;;;;;21.00;52.98;100810.59;5117386;27;45298;-52
2022/09/04 02:11:14;;;;;;;;;10.80;10.80;;;;;20.94;53.05;100798.63;5099283;27;45482;-54
2022/09/04 02:14:03;;;;;;;;;9.20;9.20;;;;;20.80;52.78;100795.50;5115729;27;45541;-51
2022/09/04 02:16:56;;;;;;;;;10.20;9.40;;;;;20.84;53.18;100807.81;5081952;27;45444;-50
2022/09/04 02:19:40;;;;;;;;;8.00;8.00;;;;;20.82;53.08;100811.97;5099124;27;45354;-50
2022/09/04 02:22:13;;;;;;;;;8.80;8.20;;;;;20.83;53.12;100819.22;5095541;27;45352;-53
2022/09/04 02:24:58;;;;;;;;;11.20;10.00;;;;;20.82;53.01;100823.13;5096500;27;45488;-54
2022/09/04 02:27:57;;;;;;;;;6.40;6.40;;;;;20.63;52.90;100795.81;5078018;27;45390;-51
2022/09/04 02:30:22;;;;;;;;;6.40;6.40;;;;;20.58;52.70;100793.00;5078131;27;45463;-53
2022/09/04 02:33:00;;;;;;;;;7.00;6.75;;;;;20.74;52.76;100832.88;5078043;27;45377;-51
2022/09/04 02:36:13;;;;;;;;;5.60;5.60;;;;;20.68;53.04;100828.41;5096528;27;46548;-51
2022/09/04 02:39:22;;;;;;;;;8.60;8.60;;;;;20.67;53.04;100835.97;5090574;27;45501;-51
2022/09/04 02:41:50;;;;;;;;;7.80;5.60;;;;;20.69;52.61;100836.50;5089040;27;45367;-54
2022/09/04 02:44:28;;;;;;;;;8.80;7.60;;;;;20.62;52.88;100824.81;5096514;27;45528;-55
2022/09/04 02:47:11;;;;;;;;;5.60;5.60;;;;;20.65;52.43;100835.38;5061898;27;46119;-54
2022/09/04 02:49:42;;;;;;;;;6.60;6.60;;;;;20.67;52.92;100843.47;5062342;27;45393;-52
2022/09/04 02:52:44;;;;;;;;;5.80;5.80;;;;;20.65;52.79;100852.13;5096189;27;45373;-50
2022/09/04 02:55:31;;;;;;;;;7.60;6.00;;;;;20.66;52.43;100845.41;5095509;27;45573;-50
2022/09/04 02:58:18;;;;;;;;;7.60;7.60;;;;;20.67;52.68;100849.91;5096010;27;46801;-51
2022/09/04 03:00:56;;;;;;;;;7.40;7.40;;;;;20.62;52.78;100852.69;5096256;27;45742;-49
2022/09/04 03:03:41;;;;;;;;;6.80;6.80;;;;;20.59;52.52;100837.34;5061660;27;45414;-53
2022/09/04 03:06:12;;;;;;;;;5.80;5.80;;;;;20.63;52.34;100845.13;5096559;27;45284;-53
2022/09/04 03:09:09;;;;;;;;;6.80;6.20;;;;;20.52;52.31;100830.34;5061003;27;45974;-53
2022/09/04 03:11:37;;;;;;;;;2.40;2.40;;;;;20.57;52.33;100835.94;5080176;27;45373;-51
2022/09/04 03:14:18;;;;;;;;;5.40;5.40;;;;;20.49;51.92;100833.72;5061249;27;45440;-52
2022/09/04 03:17:14;;;;;;;;;7.80;6.20;;;;;20.56;52.35;100854.59;5096432;27;45275;-51
2022/09/04 03:19:47;;;;;;;;;7.20;7.20;;;;;20.51;51.89;100842.63;5077454;27;45487;-51
2022/09/04 03:22:21;;;;;;;;;6.60;6.00;;;;;20.36;52.19;100813.63;5072364;27;45418;-54
2022/09/04 03:25:05;;;;;;;;;6.40;5.40;;;;;20.60;52.11;100852.13;5097740;27;45554;-55
2022/09/04 03:27:31;;;;;;;;;7.40;7.40;;;;;20.43;51.71;100825.34;5116623;27;45250;-50
2022/09/04 03:30:08;;;;;;;;;4.00;4.00;;;;;20.54;51.79;100848.47;5114551;27;45346;-50
2022/09/04 03:32:45;;;;;;;;;4.00;4.00;;;;;20.58;51.87;100855.19;5097652;27;45448;-54
2022/09/04 03:35:48;;;;;;;;;4.60;4.60;;;;;20.60;51.76;100854.91;5116060;27;45310;-52
2022/09/04 03:38:18;;;;;;;;;4.60;4.60;;;;;20.56;51.79;100862.16;5116165;27;45371;-51
2022/09/04 03:41:07;;;;;;;;;7.00;6.00;;;;;20.57;51.87;100863.81;5068006;27;46583;-51
2022/09/04 03:43:39;;;;;;;;;6.60;6.00;;;;;20.46;52.00;100823.94;5079924;27;45489;-53
2022/09/04 03:46:07;;;;;;;;;5.60;5.20;;;;;20.66;51.45;100853.78;5080776;27;45766;-51
2022/09/04 03:48:47;;;;;;;;;7.00;6.60;;;;;20.69;51.20;100846.81;5099183;27;45871;-53
2022/09/04 03:51:50;;;;;;;;;5.20;5.20;;;;;20.56;51.26;100837.06;5098659;27;45996;-54
2022/09/04 03:54:37;;;;;;;;;7.00;5.80;;;;;20.58;51.01;100848.75;5082593;27;45342;-53
2022/09/04 03:57:20;;;;;;;;;7.00;6.60;;;;;20.59;51.13;100856.00;5098686;27;45435;-53
2022/09/04 03:59:48;;;;;;;;;6.60;5.60;;;;;20.62;50.88;100863.84;5098884;27;45335;-51
2022/09/04 04:02:44;;;;;;;;;4.60;4.60;;;;;20.53;50.64;100844.03;5098559;27;45462;-51
2022/09/04 04:05:35;;;;;;;;;4.80;4.80;;;;;20.70;50.72;100857.69;5098401;27;45344;-50
2022/09/04 04:08:01;;;;;;;;;2.00;2.00;;;;;20.71;50.48;100861.34;5098658;27;45254;-53
2022/09/04 04:10:51;;;;;;;;;5.25;4.75;;;;;20.73;50.42;100861.88;5098410;27;45335;-50
2022/09/04 04:13:51;;;;;;;;;6.60;6.00;;;;;20.71;50.40;100866.91;5098097;27;46556;-50
2022/09/04 04:16:39;;;;;;;;;4.00;4.00;;;;;20.71;50.08;100873.31;5082401;27;45381;-50
2022/09/04 04:19:32;;;;;;;;;7.40;6.20;;;;;20.68;49.95;100871.09;5098163;27;45236;-49
2022/09/04 04:22:33;;;;;;;;;5.00;5.00;;;;;20.68;50.11;100875.81;5098131;27;45468;-50
2022/09/04 04:25:10;;;;;;;;;3.20;3.20;;;;;20.50;50.19;100838.16;5071420;27;45743;-51
2022/09/04 04:28:01;;;;;;;;;4.60;3.80;;;;;20.67;50.06;100872.22;5080111;27;45418;-50
2022/09/04 04:30:37;;;;;;;;;8.60;4.60;;;;;20.61;50.26;100873.31;5098528;27;45343;-49
2022/09/04 04:33:06;;;;;;;;;5.00;5.00;;;;;20.62;50.28;100872.19;5057028;27;45407;-52
2022/09/04 04:35:49;;;;;;;;;5.60;4.00;;;;;20.57;50.35;100874.97;5098114;27;45464;-54
2022/09/04 04:38:32;;;;;;;;;4.00;3.20;;;;;20.59;50.04;100867.16;5080875;27;45405;-53
2022/09/04 04:41:01;;;;;;;;;4.00;4.00;;;;;20.63;50.07;100875.81;5098509;27;45664;-54
2022/09/04 04:43:57;;;;;;;;;7.00;6.20;;;;;20.63;49.85;100878.59;5069088;27;45602;-53
2022/09/04 04:46:35;;;;;;;;;8.20;5.40;;;;;20.57;49.85;100877.75;5097009;27;46756;-54
2022/09/04 04:49:04;;;;;;;;;5.20;4.20;;;;;;;;5080297;27;45385;-52
2022/09/04 04:52:01;;;;;;;;;2.80;2.80;;;;;20.59;49.56;100878.31;5098256;27;45392;-55
2022/09/04 04:54:51;;;;;;;;;4.60;4.60;;;;;20.65;49.54;100893.94;5064885;27;45439;-53
2022/09/04 04:57:41;;;;;;;;;5.80;4.20;;;;;20.65;49.49;100891.16;5097666;27;45834;-50
2022/09/04 05:00:26;;;;;;;;;2.80;2.80;;;;;20.58;49.32;100885.00;5097689;27;45400;-54
2022/09/04 05:03:15;;;;;;;;;5.60;3.60;;;;;20.52;49.39;100894.47;5079710;27;45328;-55
2022/09/04 05:05:49;;;;;;;;;3.80;3.80;;;;;20.53;50.02;100910.09;5064504;27;45523;-54
2022/09/04 05:08:19;;;;;;;;;4.60;3.80;;;;;20.45;49.62;100903.94;5079022;27;47603;-52
2022/09/04 05:11:00;;;;;;;;;4.20;4.20;;;;;20.33;49.70;100877.44;5079194;27;45389;-51
2022/09/04 05:13:32;;;;;;;;;3.20;3.20;;;;;20.49;49.04;100904.22;5064030;27;45289;-54
2022/09/04 05:16:03;;;;;;;;;4.60;4.60;;;;;20.54;49.57;100911.78;5080002;27;45275;-50
2022/09/04 05:18:42;;;;;;;;;4.00;4.00;;;;;20.50;49.54;100908.72;5097690;27;46594;-51
2022/09/04 05:21:15;;;;;;;;;5.00;4.20;;;;;20.55;49.92;100908.69;5080167;27;45498;-51
2022/09/04 05:23:51;;;;;;;;;5.40;5.40;;;;;20.56;49.58;100918.72;5062862;27;45381;-52
2022/09/04 05:26:42;;;;;;;;;4.00;4.00;;;;;20.55;49.64;100921.81;5062729;28;45497;-53
2022/09/04 05:29:46;;;;;;;;;4.20;4.20;;;;;20.55;49.49;100927.41;5059589;28;45402;-51
2022/09/04 05:32:23;;;;;;;;;6.60;5.00;;;;;20.55;49.48;100933.78;5076718;28;45354;-53
2022/09/04 05:35:10;;;;;;;;;4.00;4.00;;;;;20.36;49.88;100910.31;5076639;28;45283;-54
2022/09/04 05:37:53;;;;;;;;;4.80;4.80;;;;;20.42;50.33;100934.31;5076842;28;45368;-51
2022/09/04 05:40:29;;;;;;;;;6.80;5.60;;;;;20.25;50.50;100926.19;5042088;28;46634;-53
2022/09/04 05:43:07;;;;;;;;;10.80;7.00;;;;;20.37;50.89;100951.88;5058520;28;45421;-51
2022/09/04 05:45:55;;;;;;;;;6.00;6.00;;;;;20.38;50.87;100952.72;5076270;28;45397;-52
2022/09/04 05:48:26;;;;;;;;;9.60;6.60;;;;;20.36;50.85;100943.75;5058787;28;45398;-50
2022/09/04 05:51:03;;;;;;;;;6.00;5.80;;;;;20.40;51.07;100956.06;5041511;28;45745;-53
2022/09/04 05:53:55;;;;;;;;;5.20;5.20;;;;;20.28;51.09;100928.44;5058347;28;45449;-51
2022/09/04 05:56:44;;;;;;;;;5.40;5.40;;;;;20.47;51.13;100961.34;5059590;28;45664;-51
2022/09/04 05:59:19;;;;;;;;;8.20;7.20;;;;;20.34;50.90;100944.06;5058487;28;45338;-54
2022/09/04 06:01:45;;;;;;;;;6.80;6.80;;;;;20.48;50.94;100971.41;5076207;28;46000;-51
2022/09/04 06:04:41;;;;;;;;;7.40;7.40;;;;;20.37;51.46;100970.53;5075817;28;45279;-51
2022/09/04 06:07:25;;;;;;;;;7.00;7.00;;;;;20.27;51.71;100974.94;5035573;28;46055;-52
2022/09/04 06:09:58;;;;;;;;;7.20;6.00;;;;;20.29;51.91;100971.91;5075937;28;45348;-50
2022/09/04 06:12:45;;;;;;;;;8.60;6.40;;;;;20.13;52.08;100957.88;5057784;28;46238;-51
2022/09/04 06:15:44;;;;;;;;;8.20;7.00;;;;;20.35;51.85;100981.97;5076067;28;45414;-55
2022/09/04 06:18:41;;;;;;;;;7.00;5.60;;;;;20.32;51.70;100982.50;5058190;28;45288;-51
2022/09/04 06:21:40;;;;;;;;;7.60;7.60;;;;;20.09;51.80;100955.91;5030798;28;45319;-54
2022/09/04 06:24:08;;;;;;;;;7.00;6.40;;;;;20.23;51.97;100978.56;5074911;27;45283;-52
2022/09/04 06:26:55;;;;;;;;;6.20;6.20;;;;;20.16;52.08;100974.06;5116534;27;45336;-54
2022/09/04 06:29:26;;;;;;;;;7.80;7.20;;;;;20.24;52.30;100988.59;5101331;27;45386;-49
2022/09/04 06:32:10;;;;;;;;;6.40;6.40;;;;;20.23;52.08;100998.88;5117808;27;45435;-51
2022/09/04 06:34:54;;;;;;;;;6.80;4.20;;;;;20.23;52.09;100992.50;5116807;27;46739;-51
2022/09/04 06:37:43;;;;;;;;;7.40;6.60;;;;;20.28;52.00;101003.69;5101175;27;45447;-55
2022/09/04 06:40:23;;;;;;;;;5.00;4.60;;;;;20.27;51.89;100994.47;5098494;27;45451;-51
2022/09/04 06:42:55;;;;;;;;;7.20;6.60;;;;;20.34;51.95;101001.75;5083137;27;45841;-56
2022/09/04 06:45:52;;;;;;;;;9.80;8.20;;;;;20.45;51.88;101007.06;5116924;27;45620;-55
2022/09/04 06:48:34;;;;;;;;;8.00;6.20;;;;;20.57;51.44;101011.59;5116954;27;45503;-52
2022/09/04 06:51:05;;;;;;;;;7.60;6.20;;;;;20.66;51.92;101025.84;5099186;27;45448;-51
2022/09/04 06:53:55;;;;;;;;;4.80;4.80;;;;;20.68;51.18;101018.03;5117177;27;45835;-55
2022/09/04 06:56:58;;;;;;;;;8.20;6.60;;;;;20.65;51.40;101022.22;5116990;27;46717;-52
2022/09/04 06:59:40;;;;;;;;;6.00;6.00;;;;;20.67;51.13;101016.38;5116766;27;45301;-50
2022/09/04 07:02:18;;;;;;;;;5.20;5.20;;;;;20.66;51.43;101021.09;5082607;27;45873;-52
2022/09/04 07:04:43;;;;;;;;;6.60;6.60;;;;;20.67;51.47;101027.50;5116594;27;45309;-55
2022/09/04 07:07:29;;;;;;;;;5.75;5.75;;;;;20.69;51.54;101019.72;5116710;27;45858;-53
2022/09/04 07:09:58;;;;;;;;;8.00;5.80;;;;;20.70;51.41;101002.72;5116407;27;45524;-54
2022/09/04 07:12:36;;;;;;;;;8.20;8.20;;;;;20.79;51.31;101019.75;5098743;27;45440;-50
2022/09/04 07:15:32;;;;;;;;;6.00;6.00;;;;;20.79;51.47;101018.91;5117144;27;45312;-55
2022/09/04 07:18:35;;;;;;;;;8.80;7.40;;;;;20.79;51.29;101030.06;5072152;27;45794;-53
2022/09/04 07:21:28;;;;;;;;;8.80;6.60;;;;;20.81;51.36;101044.59;5097774;27;45380;-53
2022/09/04 07:24:03;;;;;;;;;5.00;5.00;;;;;20.84;51.39;101035.69;5073536;27;45450;-52
2022/09/04 07:26:50;;;;;;;;;7.60;6.60;;;;;20.69;51.32;101022.50;5103382;27;45485;-54
2022/09/04 07:29:21;;;;;;;;;9.20;9.20;;;;;20.81;51.47;101047.38;5100009;27;45979;-50
2022/09/04 07:32:04;;;;;;;;;5.60;5.60;;;;;20.82;51.41;101046.25;5102351;27;45305;-51
2022/09/04 07:34:55;;;;;;;;;7.00;5.20;;;;;20.81;51.57;101037.03;5100158;27;45393;-53
2022/09/04 07:37:48;;;;;;;;;5.40;5.40;;;;;20.89;51.08;101046.88;5103567;27;45692;-52
2022/09/04 07:40:37;;;;;;;;;5.80;5.80;;;;;20.90;50.99;101042.97;5085840;27;46624;-54
2022/09/04 07:43:22;;;;;;;;;4.00;4.00;;;;;20.95;51.02;101053.28;5084552;27;45364;-54
2022/09/04 07:45:54;;;;;;;;;6.80;6.80;;;;;20.97;51.50;101051.09;5062869;27;45433;-49
2022/09/04 07:48:29;;;;;;;;;6.00;6.00;;;;;21.01;51.13;101051.38;5062318;27;45413;-51
2022/09/04 07:51:10;;;;;;;;;7.60;6.80;;;;;20.77;51.27;101024.78;5062252;27;46862;-50
2022/09/04 07:54:03;;;;;;;;;6.60;5.80;;;;;20.98;51.20;101059.16;5080454;27;45461;-52
2022/09/04 07:56:48;;;;;;;;;5.80;5.80;;;;;20.88;50.95;101031.25;5063535;27;45351;-51
2022/09/04 07:59:16;;;;;;;;;6.60;5.80;;;;;21.12;50.55;101062.28;5079229;27;45556;-48
2022/09/04 08:01:53;;;;;;;;;6.40;5.00;;;;;21.15;50.15;101077.63;5096055;27;46835;-54
2022/09/04 08:04:43;;;;;;;;;5.80;5.80;;;;;21.21;50.52;101070.09;5079070;27;45494;-51
2022/09/04 08:07:24;;;;;;;;;6.20;6.20;;;;;21.25;49.81;101071.22;5079342;27;45389;-50
2022/09/04 08:10:12;;;;;;;;;5.00;5.00;;;;;21.33;49.35;101075.41;5063273;27;45465;-54
2022/09/04 08:13:02;;;;;;;;;7.20;6.20;;;;;21.34;50.01;101077.09;5096066;27;46065;-50
2022/09/04 08:15:28;;;;;;;;;7.40;7.00;;;;;21.42;49.02;101082.13;5097013;27;45468;-51
2022/09/04 08:18:14;;;;;;;;;8.50;6.00;;;;;21.49;49.26;101082.69;5103062;27;45356;-52
2022/09/04 08:21:09;;;;;;;;;6.40;5.20;;;;;21.53;48.27;101085.78;5117880;27;45382;-53
2022/09/04 08:24:25;;;;;;;;;4.80;4.80;;;;;21.56;48.34;101081.59;5105817;27;46528;-50
2022/09/04 08:27:27;;;;;;;;;6.00;6.00;;;;;21.58;48.24;101080.19;5022099;28;45545;-53
2022/09/04 08:30:01;;;;;;;;;5.60;4.60;;;;;21.03;48.12;100985.78;5045504;28;45516;-52
2022/09/04 08:32:58;;;;;;;;;8.20;5.80;;;;;21.63;48.20;101087.72;5108093;27;45298;-52
2022/09/04 08:35:40;;;;;;;;;4.80;4.80;;;;;21.63;47.67;101070.97;5098845;27;45559;-53
2022/09/04 08:38:23;;;;;;;;;6.20;5.00;;;;;21.75;47.91;101085.53;5067981;27;45334;-48
2022/09/04 08:40:57;;;;;;;;;7.60;5.60;;;;;21.79;47.78;101086.63;5096966;27;45332;-52
2022/09/04 08:43:53;;;;;;;;;5.40;5.40;;;;;21.78;48.05;101082.16;5099906;27;45307;-52
2022/09/04 08:46:34;;;;;;;;;4.80;4.80;;;;;21.87;48.03;101087.22;5099381;27;46821;-53
2022/09/04 08:49:25;;;;;;;;;5.60;4.40;;;;;21.59;47.74;101031.59;5112955;27;45354;-53
2022/09/04 08:52:17;;;;;;;;;3.60;3.60;;;;;22.05;47.69;101086.63;5078512;27;45798;-54
2022/09/04 08:54:57;;;;;;;;;5.00;5.00;;;;;22.05;46.75;101072.66;5082754;27;45774;-54
2022/09/04 08:57:52;;;;;;;;;3.20;3.20;;;;;22.22;46.54;101096.66;5079195;27;45688;-51
2022/09/04 09:00:39;;;;;;;;;4.60;4.00;;;;;22.14;46.54;101081.28;5092537;27;45512;-54
2022/09/04 09:03:14;;;;;;;;;3.60;3.60;;;;;22.33;45.60;101098.34;5076570;27;45826;-52
2022/09/04 09:05:58;;;;;;;;;5.80;5.60;;;;;22.41;45.28;101096.06;5091913;27;45459;-50
2022/09/04 09:08:41;;;;;;;;;3.00;3.00;;;;;22.52;45.82;101094.09;5094324;27;45694;-55
2022/09/04 09:11:22;;;;;;;;;6.20;4.20;;;;;22.65;45.22;101095.44;5113015;27;45489;-49
2022/09/04 09:14:15;;;;;;;;;5.20;3.20;;;;;22.57;45.04;101066.94;5104579;27;45319;-54
2022/09/04 09:16:50;;;;;;;;;5.00;3.80;;;;;22.83;45.11;101094.81;5092377;27;45446;-52
2022/09/04 09:19:32;;;;;;;;;5.00;5.00;;;;;22.95;43.83;101102.88;5058906;27;51709;-54
2022/09/04 09:22:28;;;;;;;;;3.40;3.40;;;;;23.00;44.14;101099.22;5091728;27;45504;-51
2022/09/04 09:25:22;;;;;;;;;3.40;3.20;;;;;23.08;43.79;101104.22;5076608;27;45536;-53
2022/09/04 09:28:05;;;;;;;;;4.20;3.20;;;;;23.12;43.88;101094.09;5064536;27;46836;-51
2022/09/04 09:30:54;;;;;;;;;4.80;4.80;;;;;23.14;43.16;101100.25;5091603;27;45594;-53
2022/09/04 09:33:47;;;;;;;;;3.40;2.40;;;;;23.24;44.00;101096.56;5080722;27;45951;-52
2022/09/04 09:36:50;;;;;;;;;2.60;2.60;;;;;23.36;42.89;101096.22;5091658;27;45675;-49
2022/09/04 09:39:42;;;;;;;;;1.00;1.00;;;;;23.45;43.71;101101.22;5091058;27;46243;-52
2022/09/04 09:42:38;;;;;;;;;3.60;3.20;;;;;23.53;42.88;101095.00;5072710;27;45836;-54
2022/09/04 09:45:15;;;;;;;;;4.40;4.40;;;;;23.49;43.63;101077.09;5091455;27;45489;-54
2022/09/04 09:48:06;;;;;;;;;3.00;3.00;;;;;23.68;43.25;101103.28;5074233;27;45456;-54
2022/09/04 09:51:00;;;;;;;;;4.00;4.00;;;;;23.65;42.19;101092.66;5074343;27;45510;-54
2022/09/04 09:53:56;;;;;;;;;5.60;5.40;;;;;23.77;42.36;101095.09;5075977;27;45454;-52
2022/09/04 09:56:46;;;;;;;;;4.00;4.00;;;;;23.72;42.60;101071.88;5071993;27;45557;-51
2022/09/04 09:59:25;;;;;;;;;4.60;3.00;;;;;23.92;42.60;101094.13;5074130;27;45438;-49
2022/09/04 10:02:18;;;;;;;;;4.40;4.40;;;;;23.94;41.79;101091.00;5063887;27;45476;-52
2022/09/04 10:05:00;;;;;;;;;5.60;4.40;;;;;23.98;42.54;101086.50;5092081;27;45619;-53
2022/09/04 10:07:43;;;;;;;;;4.00;4.00;;;;;24.05;42.21;101077.72;5073331;27;45433;-53
2022/09/04 10:10:40;;;;;;;;;4.80;4.80;;;;;24.05;41.29;101078.56;5073871;27;45507;-54
2022/09/04 10:13:32;;;;;;;;;3.80;3.80;;;;;24.08;41.49;101086.41;5073857;27;45698;-52
2022/09/04 10:16:41;;;;;;;;;5.20;4.80;;;;;24.15;41.36;101085.22;5073862;27;45670;-52
2022/09/04 10:19:16;;;;;;;;;4.60;3.20;;;;;24.17;41.75;101080.19;5057355;27;45510;-52
2022/09/04 10:21:44;;;;;;;;;4.00;4.00;;;;;24.09;41.98;101056.41;5094308;27;45598;-54
2022/09/04 10:24:18;;;;;;;;;4.00;4.00;;;;;24.15;41.36;101062.81;5112802;27;45562;-53
2022/09/04 10:27:02;;;;;;;;;6.00;6.00;;;;;24.36;41.58;101071.84;5099188;27;46739;-52
2022/09/04 10:29:30;;;;;;;;;5.80;4.20;;;;;24.44;41.55;101076.78;5099453;27;45831;-51
2022/09/04 10:32:08;;;;;;;;;6.40;6.40;;;;;24.51;41.49;101076.44;5105700;27;45429;-52
2022/09/04 10:34:58;;;;;;;;;3.60;3.60;;;;;24.42;41.03;101065.03;5092008;27;45539;-51
2022/09/04 10:38:01;;;;;;;;;2.60;2.60;;;;;24.58;40.92;101073.25;5085430;27;46117;-53
2022/09/04 10:40:44;;;;;;;;;5.00;4.00;;;;;24.64;40.62;101072.91;5073588;27;45421;-52
2022/09/04 10:43:47;;;;;;;;;4.40;4.20;;;;;24.66;40.88;101069.81;5091855;27;45392;-57
2022/09/04 10:46:39;;;;;;;;;5.40;4.80;;;;;24.70;40.60;101072.84;5092004;27;45974;-55
2022/09/04 10:49:36;;;;;;;;;3.40;3.40;;;;;24.74;40.90;101063.53;5092162;27;45511;-53
2022/09/04 10:52:05;;;;;;;;;3.80;3.80;;;;;24.84;41.12;101062.56;5094094;27;45783;-51
2022/09/04 10:55:12;;;;;;;;;3.00;3.00;;;;;24.84;40.51;101053.31;5095363;27;45399;-51
2022/09/04 10:58:07;;;;;;;;;3.80;3.40;;;;;24.96;40.98;101055.69;5027938;28;45701;-51
2022/09/04 11:01:12;;;;;;;;;5.60;4.80;;;;;25.03;40.99;101059.78;5088433;27;45691;-56
2022/09/04 11:04:12;;;;;;;;;4.80;4.80;;;;;25.14;40.55;101056.84;5095271;27;45431;-50
2022/09/04 11:07:15;;;;;;;;;6.00;6.00;;;;;25.22;40.42;101061.75;5100680;27;45559;-51
2022/09/04 11:10:14;;;;;;;;;4.00;4.00;;;;;25.31;40.06;101050.69;5098051;27;45614;-54
2022/09/04 11:12:58;;;;;;;;;2.00;2.00;;;;;25.44;39.47;101049.06;5094523;27;46044;-53
2022/09/04 11:15:49;;;;;;;;;3.20;2.80;;;;;25.51;39.81;101040.25;5094922;27;45368;-51
2022/09/04 11:18:36;;;;;;;;;3.00;3.00;;;;;25.61;39.94;101040.09;5083086;27;45953;-51
2022/09/04 11:21:20;;;;;;;;;4.60;4.60;;;;;25.73;39.69;101041.59;5094413;27;45385;-56
2022/09/04 11:23:59;;;;;;;;;4.00;4.00;;;;;25.82;39.11;101034.13;5094687;27;45638;-51
2022/09/04 11:26:35;;;;;;;;;5.00;5.00;;;;;25.95;39.37;101038.94;5070792;28;45508;-56
2022/09/04 11:29:11;;;;;;;;;5.80;4.00;;;;;26.10;39.36;101043.41;5077950;27;45578;-54
2022/09/04 11:32:10;;;;;;;;;5.00;5.00;;;;;26.19;38.93;101023.03;5093007;27;45380;-52
2022/09/04 11:35:18;;;;;;;;;4.80;4.80;;;;;26.39;38.62;101035.88;5093483;27;46227;-53
2022/09/04 11:38:23;;;;;;;;;8.40;5.20;;;;;26.44;38.78;101026.47;5073010;27;45549;-53
2022/09/04 11:41:10;;;;;;;;;5.60;5.60;;;;;26.56;38.60;101031.59;5061950;27;45969;-54
2022/09/04 11:44:02;;;;;;;;;7.80;6.00;;;;;26.61;38.01;101023.88;5076549;27;45564;-50
2022/09/04 11:46:49;;;;;;;;;4.40;4.40;;;;;26.75;38.03;101023.00;5076215;27;46972;-52
2022/09/04 11:49:45;;;;;;;;;5.00;5.00;;;;;26.60;37.62;100985.63;5094750;27;45365;-52
2022/09/04 11:52:18;;;;;;;;;4.80;4.80;;;;;26.91;37.48;101027.19;5094419;27;45466;-54
2022/09/04 11:55:08;;;;;;;;;3.60;3.40;;;;;26.97;37.95;101027.03;5076221;27;45433;-53
2022/09/04 11:58:01;;;;;;;;;4.20;3.20;;;;;27.07;37.00;101021.19;5081604;27;46922;-52
2022/09/04 12:00:31;;;;;;;;;3.00;3.00;;;;;27.09;36.75;101021.69;5073866;28;45379;-51
2022/09/04 12:03:26;;;;;;;;;5.60;4.00;;;;;27.24;37.25;101028.09;5033694;28;45608;-52
2022/09/04 12:06:06;;;;;;;;;5.00;4.20;;;;;27.37;37.04;101032.84;5054825;27;45428;-55
2022/09/04 12:08:58;;;;;;;;;5.00;5.00;;;;;27.44;36.71;101029.59;5041961;27;46954;-53
2022/09/04 12:12:00;;;;;;;;;6.00;4.00;;;;;27.54;36.94;101025.69;5061755;27;45504;-52
2022/09/04 12:14:50;;;;;;;;;4.00;3.00;;;;;27.71;36.50;101019.34;5083636;27;45820;-56
2022/09/04 12:17:47;;;;;;;;;5.80;5.80;;;;;27.76;36.12;101019.22;5073012;27;45412;-52
2022/09/04 12:20:32;;;;;;;;;7.60;6.60;;;;;27.84;35.72;101015.59;5072373;27;45813;-56
2022/09/04 12:23:19;;;;;;;;;4.80;4.20;;;;;27.94;35.31;101011.69;5073223;27;45717;-57
2022/09/04 12:26:02;;;;;;;;;4.60;3.60;;;;;27.77;35.06;100981.41;5073496;27;46062;-49
2022/09/04 12:28:40;;;;;;;;;6.20;6.20;;;;;27.84;35.41;100981.78;5072902;27;45943;-50
2022/09/04 12:31:25;;;;;;;;;4.00;4.00;;;;;28.07;34.80;101006.25;5072432;27;46405;-52
2022/09/04 12:34:24;;;;;;;;;4.00;4.00;;;;;28.18;35.15;100995.50;5054248;28;45431;-53
2022/09/04 12:37:18;;;;;;;;;3.60;3.60;;;;;28.26;34.53;100997.56;5073245;28;45698;-53
2022/09/04 12:39:47;;;;;;;;;5.00;5.00;;;;;28.27;34.42;100994.41;5070207;27;46053;-51
2022/09/04 12:42:13;;;;;;;;;6.00;6.00;;;;;28.40;34.42;101009.53;5073075;28;47063;-55